Date,TemperatureHighF,TemperatureAvgF,TemperatureLowF,DewpointHighF,DewpointAvgF,DewpointLowF,HumidityHigh,HumidityAvg,HumidityLow,PressureMaxIn,PressureMinIn,WindSpeedMaxMPH,WindSpeedAvgMPH,GustSpeedMaxMPH,PrecipitationSumIn
2013-1-1,36.0,26.0,20.0,-99.9,-99.9,-99.9,0,0,100,0.00,40.00,6,2,8,0.00
2013-1-2,30.0,26.6,24.0,-99.9,-99.9,-99.9,0,0,100,0.00,40.00,28,9,36,0.00
2013-1-3,35.0,29.2,21.0,-99.9,-99.9,-99.9,0,0,100,0.00,40.00,41,22,58,0.00
2013-1-4,37.0,31.1,25.0,-99.9,-99.9,-99.9,0,0,100,0.00,40.00,50,13,50,0.00
2013-1-5,36.0,30.4,25.0,-99.9,-99.9,-99.9,0,0,100,0.00,40.00,50,20,56,0.00
2013-1-6,42.0,33.4,29.0,-99.9,-99.9,-99.9,0,0,100,0.00,40.00,34,9,41,0.00
2013-1-7,37.0,32.8,29.0,-99.9,-99.9,-99.9,0,0,100,0.00,40.00,51,28,60,0.00
2013-1-8,44.0,40.2,34.0,-99.9,-99.9,-99.9,0,0,100,0.00,40.00,51,20,57,0.00
2013-1-9,48.0,43.8,36.0,-99.9,-99.9,-99.9,0,0,100,0.00,40.00,50,21,53,0.00
2013-1-10,39.0,34.7,32.0,-99.9,-99.9,-99.9,0,0,100,0.00,40.00,15,9,17,0.00
2013-1-11,31.0,28.6,25.0,-99.9,-99.9,-99.9,0,0,100,0.00,40.00,17,10,24,0.00
2013-1-12,29.0,22.2,14.0,-99.9,-99.9,-99.9,0,0,100,0.00,40.00,5,2,9,0.00
2013-1-13,34.0,23.2,17.0,-99.9,-99.9,-99.9,0,0,100,0.00,40.00,9,3,11,0.00
2013-1-14,33.0,23.5,20.0,-99.9,-99.9,-99.9,0,0,100,0.00,40.00,22,4,27,0.00
2013-1-15,36.0,24.7,17.0,-99.9,-99.9,-99.9,0,0,100,0.00,40.00,4,2,6,0.00
2013-1-16,33.0,26.7,20.0,-99.9,-99.9,-99.9,0,0,100,0.00,40.00,25,8,38,0.00
2013-1-17,34.0,29.7,25.0,-99.9,-99.9,-99.9,0,0,100,0.00,40.00,35,16,41,0.00
2013-1-18,37.0,32.8,29.0,-99.9,-99.9,-99.9,0,0,100,0.00,40.00,37,21,44,0.00
2013-1-19,38.0,30.7,23.0,-99.9,-99.9,-99.9,0,0,100,0.00,40.00,35,9,37,0.00
2013-1-20,36.0,29.0,22.0,-99.9,-99.9,-99.9,0,0,100,0.00,40.00,10,4,14,0.00
2013-4-15,49.0,43.3,41.0,-99.9,-99.9,-99.9,0,0,100,0.00,40.00,14,9,16,0.00
2013-4-16,47.0,42.3,36.0,-99.9,-99.9,-99.9,0,0,100,0.00,40.00,22,9,22,0.00
2013-4-17,56.0,46.5,29.0,-99.9,-99.9,-99.9,0,0,100,0.00,40.00,16,8,22,0.00
2013-4-18,64.0,47.2,29.0,-99.9,-99.9,-99.9,0,0,100,0.00,40.00,9,3,10,0.00
2013-4-19,55.0,52.5,51.0,-99.9,-99.9,-99.9,0,0,100,0.00,40.00,14,5,17,0.00
2013-4-20,62.0,53.5,47.0,-99.9,-99.9,-99.9,0,0,100,0.00,40.00,25,6,28,0.00
2013-4-21,60.0,50.0,36.0,-99.9,-99.9,-99.9,0,0,100,0.00,40.00,18,7,20,0.00
2013-4-22,56.0,48.8,41.0,-99.9,-99.9,-99.9,0,0,100,0.00,40.00,16,10,20,0.00
2013-4-23,62.0,49.1,30.0,-99.9,-99.9,-99.9,0,0,100,0.00,40.00,10,4,15,0.00
2013-4-24,72.0,55.8,32.0,-99.9,-99.9,-99.9,0,0,100,0.00,40.00,16,5,24,0.00
2013-4-25,73.0,59.8,40.0,-99.9,-99.9,-99.9,0,0,100,0.00,40.00,19,6,20,0.00
2013-4-26,81.0,62.7,45.0,-99.9,-99.9,-99.9,0,0,100,0.00,40.00,12,4,13,0.00
2013-4-27,82.0,63.1,47.0,-99.9,-99.9,-99.9,0,0,100,0.00,40.00,14,4,21,0.00
2013-4-28,68.0,59.3,49.0,-99.9,-99.9,-99.9,0,0,100,0.00,40.00,19,5,19,0.00
2013-4-29,61.0,56.1,48.0,-99.9,-99.9,-99.9,0,0,100,0.00,40.00,31,11,36,0.00
2013-4-30,54.0,46.4,38.0,-99.9,-99.9,-99.9,0,0,100,0.00,40.00,16,10,22,0.00
2013-5-1,67.0,47.4,28.0,-99.9,-99.9,-99.9,0,0,100,0.00,40.00,7,3,9,0.00
2013-5-2,73.0,58.5,35.0,-99.9,-99.9,-99.9,0,0,100,0.00,40.00,22,7,25,0.00
2013-5-3,73.0,61.9,44.0,-99.9,-99.9,-99.9,0,0,100,0.00,40.00,17,6,23,0.00
2013-5-4,73.0,66.1,54.0,-99.9,-99.9,-99.9,0,0,100,0.00,40.00,16,10,21,0.00
2013-5-5,79.0,66.9,45.0,-99.9,-99.9,-99.9,0,0,100,0.00,40.00,10,3,12,0.00
2013-5-6,87.0,68.8,47.0,-99.9,-99.9,-99.9,0,0,100,0.00,40.00,13,5,20,0.00
2013-5-7,87.0,69.6,52.0,-99.9,-99.9,-99.9,0,0,100,0.00,40.00,16,6,19,0.00
2013-5-8,87.0,71.4,52.0,-99.9,-99.9,-99.9,0,0,100,0.00,40.00,12,5,15,0.00
2013-5-9,90.0,72.7,54.0,-99.9,-99.9,-99.9,0,0,100,0.00,40.00,13,4,16,0.00
2013-5-10,91.0,69.9,50.0,-99.9,-99.9,-99.9,0,0,100,0.00,40.00,6,2,8,0.00
2013-5-11,93.0,73.2,58.0,-99.9,-99.9,-99.9,0,0,100,0.00,40.00,8,3,11,0.00
2013-5-12,87.0,72.5,60.0,-99.9,-99.9,-99.9,0,0,100,0.00,40.00,16,5,18,0.00
2013-5-13,83.0,65.5,54.0,-99.9,-99.9,-99.9,0,0,100,0.00,40.00,21,7,33,0.00
2013-5-14,73.0,61.8,52.0,-99.9,-99.9,-99.9,0,0,100,0.00,40.00,13,6,17,0.00
2013-5-15,74.0,58.0,40.0,-99.9,-99.9,-99.9,0,0,100,0.00,40.00,19,5,20,0.00
2013-5-16,71.0,57.4,56.0,-99.9,-99.9,-99.9,0,0,100,0.00,40.00,14,6,16,0.00
2013-5-17,67.0,58.0,54.0,-99.9,-99.9,-99.9,0,0,100,0.00,40.00,18,9,21,0.00
2013-5-18,69.0,56.8,47.0,-99.9,-99.9,-99.9,0,0,100,0.00,40.00,12,6,15,0.00
2013-5-19,65.0,57.4,51.0,-99.9,-99.9,-99.9,0,0,100,0.00,40.00,15,7,18,0.00
2013-5-20,80.0,60.7,42.0,-99.9,-99.9,-99.9,0,0,100,0.00,40.00,7,3,10,0.00
2013-5-21,74.0,59.8,45.0,-99.9,-99.9,-99.9,0,0,100,0.00,40.00,31,14,35,0.00
2013-5-22,54.0,46.4,42.0,-99.9,-99.9,-99.9,0,0,100,0.00,40.00,14,5,18,0.00
2013-5-23,63.0,49.6,32.0,-99.9,-99.9,-99.9,0,0,100,0.00,40.00,21,5,29,0.00
2013-5-24,59.0,50.4,42.0,-99.9,-99.9,-99.9,0,0,100,0.00,40.00,8,4,13,0.00
2013-5-25,69.0,55.8,42.0,-99.9,-99.9,-99.9,0,0,100,0.00,40.00,9,3,9,0.00
2013-5-26,65.0,57.8,46.0,-99.9,-99.9,-99.9,0,0,100,0.00,40.00,12,6,17,0.00
2013-5-27,66.0,56.7,45.0,-99.9,-99.9,-99.9,0,0,100,0.00,40.00,17,5,19,0.00
2013-5-28,67.0,57.8,53.0,-99.9,-99.9,-99.9,0,0,100,0.00,40.00,11,6,18,0.00
2013-5-29,63.0,54.0,47.0,-99.9,-99.9,-99.9,0,0,100,0.00,40.00,14,4,20,0.00
2013-5-30,66.0,58.2,51.0,-99.9,-99.9,-99.9,0,0,100,0.00,40.00,14,6,16,0.00
2013-5-31,71.0,61.4,40.0,-99.9,-99.9,-99.9,0,0,100,0.00,40.00,9,4,12,0.00
2013-6-1,81.0,63.2,43.0,-99.9,-99.9,-99.9,0,0,100,0.00,40.00,10,3,15,0.00
2013-6-2,73.0,63.3,50.0,-99.9,-99.9,-99.9,0,0,100,0.00,40.00,18,8,24,0.00
2013-6-3,76.0,63.6,44.0,-99.9,-99.9,-99.9,0,0,100,0.00,40.00,15,5,17,0.00
2013-6-4,80.0,66.5,45.0,-99.9,-99.9,-99.9,0,0,100,0.00,40.00,15,6,16,0.00
2013-6-5,87.0,72.0,47.0,-99.9,-99.9,-99.9,0,0,100,0.00,40.00,9,3,16,0.00
2013-6-6,90.0,73.2,54.0,-99.9,-99.9,-99.9,0,0,100,0.00,40.00,12,3,15,0.00
2013-6-7,87.0,71.9,59.0,-99.9,-99.9,-99.9,0,0,100,0.00,40.00,22,6,24,0.00
2013-6-8,85.0,72.9,56.0,-99.9,-99.9,-99.9,0,0,100,0.00,40.00,13,4,13,0.00
2013-6-9,83.0,69.8,50.0,-99.9,-99.9,-99.9,0,0,100,0.00,40.00,14,4,16,0.00
2013-6-10,83.0,69.1,51.0,-99.9,-99.9,-99.9,0,0,100,0.00,40.00,15,6,18,0.00
2013-6-11,73.0,63.2,56.0,-99.9,-99.9,-99.9,0,0,100,0.00,40.00,20,10,25,0.00
2013-6-12,73.0,61.8,52.0,-99.9,-99.9,-99.9,0,0,100,0.00,40.00,16,9,18,0.00
2013-6-13,69.0,59.5,50.0,-99.9,-99.9,-99.9,0,0,100,0.00,40.00,24,10,24,0.00
2013-6-14,77.0,61.9,51.0,-99.9,-99.9,-99.9,0,0,100,0.00,40.00,12,4,12,0.00
2013-6-15,85.0,68.6,43.0,-99.9,-99.9,-99.9,0,0,100,0.00,40.00,12,3,14,0.00
2013-6-16,91.0,76.4,56.0,-99.9,-99.9,-99.9,0,0,100,0.00,40.00,21,4,22,0.00
2013-6-17,89.0,74.7,62.0,-99.9,-99.9,-99.9,0,0,100,0.00,40.00,21,7,22,0.00
2013-6-18,73.0,64.3,58.0,-99.9,-99.9,-99.9,0,0,100,0.00,40.00,15,9,19,0.00
2013-6-19,59.0,52.3,46.0,-99.9,-99.9,-99.9,0,0,100,0.00,40.00,17,8,20,0.00
2013-6-20,67.0,54.9,51.0,-99.9,-99.9,-99.9,0,0,100,0.00,40.00,8,4,12,0.00
2013-6-22,76.0,68.6,54.0,-99.9,-99.9,-99.9,0,0,100,0.00,40.00,16,4,16,0.00
2013-6-23,78.0,66.7,54.0,-99.9,-99.9,-99.9,0,0,100,0.00,40.00,10,3,15,0.00
2013-6-24,68.0,62.9,56.0,-99.9,-99.9,-99.9,0,0,100,0.00,40.00,7,3,9,0.00
2013-6-25,59.0,57.7,55.0,-99.9,-99.9,-99.9,0,0,100,0.00,40.00,4,2,5,0.00
2013-6-27,91.0,81.4,73.0,-99.9,-99.9,-99.9,0,0,100,0.00,40.00,12,5,13,0.00
2013-6-28,95.0,80.1,62.0,-99.9,-99.9,-99.9,0,0,100,0.00,40.00,8,4,9,0.00
2013-6-29,91.0,82.1,73.0,-99.9,-99.9,-99.9,0,0,100,0.00,40.00,16,8,20,0.00
2013-6-30,98.0,84.9,65.0,-99.9,-99.9,-99.9,0,0,100,0.00,40.00,11,5,15,0.00
2013-7-1,102.0,89.0,71.0,-99.9,-99.9,-99.9,0,0,100,0.00,40.00,9,4,12,0.00
2013-7-2,103.0,88.3,73.0,-99.9,-99.9,-99.9,0,0,100,0.00,40.00,10,4,19,0.00
2013-7-3,94.0,86.3,74.0,-99.9,-99.9,-99.9,0,0,100,0.00,40.00,11,4,13,0.00
2013-7-4,87.0,77.5,64.0,-99.9,-99.9,-99.9,0,0,100,0.00,40.00,12,5,15,0.00
2013-7-5,82.0,72.8,61.0,-99.9,-99.9,-99.9,0,0,100,0.00,40.00,12,6,17,0.00
2013-7-6,85.0,66.3,48.0,-99.9,-99.9,-99.9,0,0,100,0.00,40.00,10,4,12,0.00
2013-7-7,91.0,76.8,54.0,-99.9,-99.9,-99.9,0,0,100,0.00,40.00,8,3,15,0.00
2013-7-8,88.0,74.6,65.0,-99.9,-99.9,-99.9,0,0,100,0.00,40.00,14,6,17,0.00
2013-7-9,94.0,74.5,54.0,-99.9,-99.9,-99.9,0,0,100,0.00,40.00,10,4,10,0.00
2013-7-10,94.0,77.6,59.0,-99.9,-99.9,-99.9,0,0,100,0.00,40.00,9,4,12,0.00
2013-7-11,87.0,79.2,69.0,-99.9,-99.9,-99.9,0,0,100,0.00,40.00,9,5,14,0.00
2013-7-12,87.0,73.2,62.0,-99.9,-99.9,-99.9,0,0,100,0.00,40.00,10,6,16,0.00
2013-7-13,84.0,72.2,56.0,-99.9,-99.9,-99.9,0,0,100,0.00,40.00,9,5,12,0.00
2013-7-14,92.0,75.5,58.0,-99.9,-99.9,-99.9,0,0,100,0.00,40.00,10,3,11,0.00
2013-7-15,93.0,73.6,54.0,-99.9,-99.9,-99.9,0,0,100,0.00,40.00,11,4,14,0.00
2013-7-16,97.0,80.9,62.0,-99.9,-99.9,-99.9,0,0,100,0.00,40.00,16,5,19,0.00
2013-7-17,94.0,79.5,62.0,-99.9,-99.9,-99.9,0,0,100,0.00,40.00,7,4,11,0.00
2013-7-18,97.0,79.7,54.0,-99.9,-99.9,-99.9,0,0,100,0.00,40.00,7,4,10,0.00
2013-7-19,97.0,79.5,59.0,-99.9,-99.9,-99.9,0,0,100,0.00,40.00,10,5,13,0.00
2013-7-20,98.0,75.8,53.0,-99.9,-99.9,-99.9,0,0,100,0.00,40.00,11,4,16,0.00
2013-7-21,99.0,77.2,52.0,-99.9,-99.9,-99.9,0,0,100,0.00,40.00,9,3,9,0.00
2013-7-22,95.0,74.7,53.0,-99.9,-99.9,-99.9,0,0,100,0.00,40.00,13,4,17,0.00
2013-7-23,102.0,76.2,53.0,-99.9,-99.9,-99.9,0,0,100,0.00,40.00,7,-40,10,0.00
2013-7-24,96.0,75.2,54.0,-99.9,-99.9,-99.9,0,0,100,0.00,40.00,7,3,9,0.00
2013-7-25,102.0,79.8,61.0,-99.9,-99.9,-99.9,0,0,100,0.00,40.00,8,3,11,0.00
2013-7-26,100.0,76.8,52.0,-99.9,-99.9,-99.9,0,0,100,0.00,40.00,12,3,13,0.00
2013-7-27,90.0,80.1,70.0,-99.9,-99.9,-99.9,0,0,100,0.00,40.00,11,5,14,0.00
2013-7-28,87.0,72.2,54.0,-99.9,-99.9,-99.9,0,0,100,0.00,40.00,11,4,15,0.00
2013-7-29,91.0,72.0,46.0,-99.9,-99.9,-99.9,0,0,100,0.00,40.00,5,2,8,0.00
2013-7-30,92.0,78.5,58.0,-99.9,-99.9,-99.9,0,0,100,0.00,40.00,10,4,12,0.00
2013-7-31,91.0,76.9,57.0,-99.9,-99.9,-99.9,0,0,100,0.00,40.00,12,4,14,0.00
2013-8-1,82.0,76.5,66.0,-99.9,-99.9,-99.9,0,0,100,0.00,40.00,18,10,22,0.00
2013-8-2,77.0,72.9,67.0,-99.9,-99.9,-99.9,0,0,100,0.00,40.00,8,4,14,0.00
2013-8-3,86.0,71.5,52.0,-99.9,-99.9,-99.9,0,0,100,0.00,40.00,8,3,10,0.00
2013-8-4,94.0,74.0,54.0,-99.9,-99.9,-99.9,0,0,100,0.00,40.00,8,3,11,0.00
2013-8-5,94.0,79.2,62.0,-99.9,-99.9,-99.9,0,0,100,0.00,40.00,11,4,16,0.00
2013-8-6,97.0,76.5,54.0,-99.9,-99.9,-99.9,0,0,100,0.00,40.00,8,3,12,0.00
2013-8-7,97.0,77.7,55.0,-99.9,-99.9,-99.9,0,0,100,0.00,40.00,9,3,16,0.00
2013-8-8,94.0,80.6,70.0,-99.9,-99.9,-99.9,0,0,100,0.00,40.00,13,7,16,0.00
2013-8-9,97.0,81.9,68.0,-99.9,-99.9,-99.9,0,0,100,0.00,40.00,13,6,17,0.00
2013-8-10,91.0,76.9,63.0,-99.9,-99.9,-99.9,0,0,100,0.00,40.00,18,6,25,0.00
2013-8-11,89.0,74.7,60.0,-99.9,-99.9,-99.9,0,0,100,0.00,40.00,9,4,16,0.00
2013-8-12,91.0,75.2,65.0,-99.9,-99.9,-99.9,0,0,100,0.00,40.00,15,4,31,0.00
2013-8-13,93.0,71.7,56.0,-99.9,-99.9,-99.9,0,0,100,0.00,40.00,9,3,17,0.00
2013-8-14,98.0,77.0,57.0,-99.9,-99.9,-99.9,0,0,100,0.00,40.00,8,4,13,0.00
2013-8-15,99.0,73.6,59.0,-99.9,-99.9,-99.9,0,0,100,0.00,40.00,12,5,16,0.00
2013-8-16,95.0,75.2,63.0,-99.9,-99.9,-99.9,0,0,100,0.00,40.00,15,6,23,0.00
2013-8-17,94.0,75.8,60.0,-99.9,-99.9,-99.9,0,0,100,0.00,40.00,10,5,14,0.00
2013-8-18,91.0,78.5,62.0,-99.9,-99.9,-99.9,0,0,100,0.00,40.00,15,4,15,0.00
2013-8-19,92.0,70.9,55.0,-99.9,-99.9,-99.9,0,0,100,0.00,40.00,13,4,15,0.00
2013-8-20,91.0,76.6,65.0,-99.9,-99.9,-99.9,0,0,100,0.00,40.00,12,6,15,0.00
2013-8-21,94.0,68.6,54.0,-99.9,-99.9,-99.9,0,0,100,0.00,40.00,6,3,9,0.00
2013-8-22,94.0,70.7,62.0,-99.9,-99.9,-99.9,0,0,100,0.00,40.00,15,4,21,0.00
2013-8-23,88.0,72.2,55.0,-99.9,-99.9,-99.9,0,0,100,0.00,40.00,14,3,14,0.00
2013-8-24,88.0,67.9,55.0,-99.9,-99.9,-99.9,0,0,100,0.00,40.00,15,4,19,0.00
2013-8-25,90.0,70.8,55.0,-99.9,-99.9,-99.9,0,0,100,0.00,40.00,29,7,32,0.00
2013-8-26,89.0,69.0,51.0,-99.9,-99.9,-99.9,0,0,100,0.00,40.00,9,3,16,0.00
2013-8-27,76.0,64.3,55.0,-99.9,-99.9,-99.9,0,0,100,0.00,40.00,5,2,9,0.00
2013-8-28,97.0,85.9,72.0,-99.9,-99.9,-99.9,0,0,100,0.00,40.00,13,6,18,0.00
2013-8-29,91.0,74.0,58.0,-99.9,-99.9,-99.9,0,0,100,0.00,40.00,10,4,13,0.00
2013-8-30,89.0,74.9,62.0,-99.9,-99.9,-99.9,0,0,100,0.00,40.00,11,4,13,0.00
2013-8-31,98.0,75.0,54.0,-99.9,-99.9,-99.9,0,0,100,0.00,40.00,10,3,11,0.00
2013-9-1,94.0,73.4,54.0,-99.9,-99.9,-99.9,0,0,100,0.00,40.00,7,2,13,0.00
2013-9-2,78.0,73.2,69.0,-99.9,-99.9,-99.9,0,0,100,0.00,40.00,11,4,17,0.00
2013-9-3,87.0,79.2,71.0,-99.9,-99.9,-99.9,0,0,100,0.00,40.00,22,11,29,0.00
2013-9-4,91.0,78.4,66.0,-99.9,-99.9,-99.9,0,0,100,0.00,40.00,25,8,30,0.00
2013-9-5,86.0,71.0,64.0,-99.9,-99.9,-99.9,0,0,100,0.00,40.00,24,8,31,0.00
2013-9-6,74.0,66.1,55.0,-99.9,-99.9,-99.9,0,0,100,0.00,40.00,13,4,18,0.00
2013-9-7,84.0,68.9,53.0,-99.9,-99.9,-99.9,0,0,100,0.00,40.00,10,3,11,0.00
2013-9-8,81.0,68.5,52.0,-99.9,-99.9,-99.9,0,0,100,0.00,40.00,12,5,16,0.00
2013-9-9,87.0,69.6,52.0,-99.9,-99.9,-99.9,0,0,100,0.00,40.00,6,3,10,0.00
2013-9-10,91.0,74.6,54.0,-99.9,-99.9,-99.9,0,0,100,0.00,40.00,7,4,8,0.00
2013-9-11,97.0,72.5,54.0,-99.9,-99.9,-99.9,0,0,100,0.00,40.00,9,3,12,0.00
2013-9-12,94.0,75.6,58.0,-99.9,-99.9,-99.9,0,0,100,0.00,40.00,8,3,21,0.00
2013-9-13,92.0,79.4,64.0,-99.9,-99.9,-99.9,0,0,100,0.00,40.00,19,5,29,0.00
2013-9-14,94.0,72.2,55.0,-99.9,-99.9,-99.9,0,0,100,0.00,40.00,11,2,19,0.00
2013-9-15,90.0,76.6,63.0,-99.9,-99.9,-99.9,0,0,100,0.00,40.00,29,11,30,0.00
2013-9-16,80.0,70.4,62.0,-99.9,-99.9,-99.9,0,0,100,0.00,40.00,13,6,17,0.00
2013-9-17,68.0,58.8,51.0,-99.9,-99.9,-99.9,0,0,100,0.00,40.00,16,6,20,0.00
2013-9-18,57.0,54.4,50.0,-99.9,-99.9,-99.9,0,0,100,0.00,40.00,9,4,13,0.00
2013-9-19,75.0,57.0,36.0,-99.9,-99.9,-99.9,0,0,100,0.00,40.00,23,8,26,0.00
2013-9-20,83.0,77.1,67.0,-99.9,-99.9,-99.9,0,0,100,0.00,40.00,27,15,37,0.00
2013-9-21,70.0,62.7,57.0,-99.9,-99.9,-99.9,0,0,100,0.00,40.00,13,5,20,0.00
2013-9-22,71.0,61.4,54.0,-99.9,-99.9,-99.9,0,0,100,0.00,40.00,12,4,16,0.00
2013-9-23,70.0,60.0,50.0,-99.9,-99.9,-99.9,0,0,100,0.00,40.00,6,3,8,0.00
2013-9-24,60.0,54.6,47.0,-99.9,-99.9,-99.9,0,0,100,0.00,40.00,12,3,13,0.00
2013-9-25,57.0,51.3,45.0,-99.9,-99.9,-99.9,0,0,100,0.00,40.00,15,7,20,0.00
2013-9-26,58.0,53.1,50.0,-99.9,-99.9,-99.9,0,0,100,0.00,40.00,22,11,25,0.00
2013-9-27,61.0,54.8,44.0,-99.9,-99.9,-99.9,0,0,100,0.00,40.00,11,6,19,0.00
2013-9-28,69.0,58.5,53.0,-99.9,-99.9,-99.9,0,0,100,0.00,40.00,37,18,37,0.00
2013-9-29,70.0,55.1,51.0,-99.9,-99.9,-99.9,0,0,100,0.00,40.00,25,14,29,0.00
2013-9-30,65.0,56.8,51.0,-99.9,-99.9,-99.9,0,0,100,0.00,40.00,24,9,35,0.00
2013-10-1,50.0,46.7,44.0,-99.9,-99.9,-99.9,0,0,100,0.00,40.00,9,4,16,0.00
2013-10-2,56.0,45.5,35.0,-99.9,-99.9,-99.9,0,0,100,0.00,40.00,12,4,14,0.00
2013-10-3,54.0,49.4,45.0,-99.9,-99.9,-99.9,0,0,100,0.00,40.00,22,10,25,0.00
2013-10-4,65.0,49.9,34.0,-99.9,-99.9,-99.9,0,0,100,0.00,40.00,10,4,15,0.00
2013-10-5,70.0,48.8,32.0,-99.9,-99.9,-99.9,0,0,100,0.00,40.00,12,4,24,0.00
2013-10-6,73.0,70.2,66.0,-99.9,-99.9,-99.9,0,0,100,0.00,40.00,37,22,41,0.00
2013-10-7,65.0,53.1,44.0,-99.9,-99.9,-99.9,0,0,100,0.00,40.00,17,4,23,0.00
2013-10-8,56.0,50.3,45.0,-99.9,-99.9,-99.9,0,0,100,0.00,40.00,15,4,15,0.00
2013-10-9,59.0,50.5,43.0,-99.9,-99.9,-99.9,0,0,100,0.00,40.00,15,8,20,0.00
2013-10-10,62.0,52.2,43.0,-99.9,-99.9,-99.9,0,0,100,0.00,40.00,14,6,17,0.00
2013-10-11,63.0,51.2,46.0,-99.9,-99.9,-99.9,0,0,100,0.00,40.00,8,2,14,0.00
2013-10-12,57.0,47.8,40.0,-99.9,-99.9,-99.9,0,0,100,0.00,40.00,11,4,12,0.00
2013-10-13,59.0,53.2,47.0,-99.9,-99.9,-99.9,0,0,100,0.00,40.00,12,8,16,0.00
2013-10-14,60.0,48.3,35.0,-99.9,-99.9,-99.9,0,0,100,0.00,40.00,10,5,14,0.00
2013-10-15,65.0,48.9,32.0,-99.9,-99.9,-99.9,0,0,100,0.00,40.00,5,2,9,0.00
2013-10-16,69.0,48.1,38.0,-99.9,-99.9,-99.9,0,0,100,0.00,40.00,10,2,12,0.00
2013-10-17,64.0,47.6,31.0,-99.9,-99.9,-99.9,0,0,100,0.00,40.00,15,4,15,0.00
2013-10-18,57.0,42.5,33.0,-99.9,-99.9,-99.9,0,0,100,0.00,40.00,6,2,6,0.00
2013-10-19,71.0,43.1,30.0,-99.9,-99.9,-99.9,0,0,100,0.00,40.00,4,2,5,0.00
2013-10-20,72.0,52.8,34.0,-99.9,-99.9,-99.9,0,0,100,0.00,40.00,13,5,16,0.00
2013-10-21,70.0,48.2,37.0,-99.9,-99.9,-99.9,0,0,100,0.00,40.00,4,2,9,0.00
2013-10-22,73.0,48.9,34.0,-99.9,-99.9,-99.9,0,0,100,0.00,40.00,8,2,8,0.00
2013-10-23,69.0,45.6,34.0,-99.9,-99.9,-99.9,0,0,100,0.00,40.00,5,2,9,0.00
2013-10-24,72.0,46.5,32.0,-99.9,-99.9,-99.9,0,0,100,0.00,40.00,5,1,5,0.00
2013-10-25,71.0,45.6,33.0,-99.9,-99.9,-99.9,0,0,100,0.00,40.00,4,1,6,0.00
2013-10-26,69.0,46.8,32.0,-99.9,-99.9,-99.9,0,0,100,0.00,40.00,5,1,15,0.00
2013-10-27,61.0,47.3,34.0,-99.9,-99.9,-99.9,0,0,100,0.00,40.00,15,6,19,0.00
2013-10-28,52.0,47.3,43.0,-99.9,-99.9,-99.9,0,0,100,0.00,40.00,25,14,30,0.00
2013-10-29,55.0,41.5,31.0,-99.9,-99.9,-99.9,0,0,100,0.00,40.00,8,4,11,0.00
2013-10-30,59.0,41.6,28.0,-99.9,-99.9,-99.9,0,0,100,0.00,40.00,8,2,10,0.00
2013-10-31,54.0,45.9,35.0,-99.9,-99.9,-99.9,0,0,100,0.00,40.00,8,2,10,0.00
2013-11-1,58.0,49.8,39.0,-99.9,-99.9,-99.9,0,0,100,0.00,40.00,16,4,18,0.00
2013-11-2,57.0,52.3,44.0,-99.9,-99.9,-99.9,0,0,100,0.00,40.00,30,15,37,0.00
2013-11-3,46.0,43.7,40.0,-99.9,-99.9,-99.9,0,0,100,0.00,40.00,6,2,7,0.00
2013-11-4,44.0,35.9,28.0,-99.9,-99.9,-99.9,0,0,100,0.00,40.00,13,4,13,0.00
2013-11-5,41.0,36.9,28.0,-99.9,-99.9,-99.9,0,0,100,0.00,40.00,36,15,43,0.00
2013-11-6,49.0,46.5,43.0,-99.9,-99.9,-99.9,0,0,100,0.00,40.00,16,6,23,0.00
2013-11-7,57.0,50.7,43.0,-99.9,-99.9,-99.9,0,0,100,0.00,40.00,50,15,51,0.00
2013-11-8,55.0,48.4,45.0,-99.9,-99.9,-99.9,0,0,100,0.00,40.00,5,2,11,0.00
2013-11-9,58.0,49.0,34.0,-99.9,-99.9,-99.9,0,0,100,0.00,40.00,27,10,37,0.00
2013-11-10,62.0,57.9,48.0,-99.9,-99.9,-99.9,0,0,100,0.00,40.00,27,16,33,0.00
2013-11-11,64.0,45.2,33.0,-99.9,-99.9,-99.9,0,0,100,0.00,40.00,4,2,12,0.00
2013-11-12,62.0,58.2,49.0,-99.9,-99.9,-99.9,0,0,100,0.00,40.00,42,16,50,0.00
2013-11-13,60.0,50.6,39.0,-99.9,-99.9,-99.9,0,0,100,0.00,40.00,9,3,12,0.00
2013-11-14,51.0,40.3,32.0,-99.9,-99.9,-99.9,0,0,100,0.00,40.00,9,4,11,0.00
2013-11-15,51.0,45.1,38.0,-99.9,-99.9,-99.9,0,0,100,0.00,40.00,10,4,13,0.00
2013-11-16,47.0,42.9,41.0,-99.9,-99.9,-99.9,0,0,100,0.00,40.00,19,9,25,0.00
2013-11-17,52.0,45.0,42.0,-99.9,-99.9,-99.9,0,0,100,0.00,40.00,29,12,34,0.00
2013-11-18,51.0,49.3,47.0,-99.9,-99.9,-99.9,0,0,100,0.00,40.00,37,22,46,0.00
2013-11-19,55.0,51.3,47.0,-99.9,-99.9,-99.9,0,0,100,0.00,40.00,27,16,34,0.00
2013-11-20,43.0,38.8,32.0,-99.9,-99.9,-99.9,0,0,100,0.00,40.00,21,12,25,0.00
2013-11-21,43.0,34.3,28.0,-99.9,-99.9,-99.9,0,0,100,0.00,40.00,19,8,19,0.00
2013-11-22,41.0,28.3,19.0,-99.9,-99.9,-99.9,0,0,100,0.00,40.00,6,2,11,0.00
2013-11-23,44.0,26.8,20.0,-99.9,-99.9,-99.9,0,0,100,0.00,40.00,4,1,5,0.00
2013-11-24,47.0,29.2,19.0,-99.9,-99.9,-99.9,0,0,100,0.00,40.00,4,1,8,0.00
2013-11-25,49.0,33.9,27.0,-99.9,-99.9,-99.9,0,0,100,0.00,40.00,4,1,7,0.00
2013-11-26,52.0,42.7,33.0,-99.9,-99.9,-99.9,0,0,100,0.00,40.00,26,7,37,0.00
2013-11-27,56.0,41.9,33.0,-99.9,-99.9,-99.9,0,0,100,0.00,40.00,20,4,25,0.00
2013-11-28,51.0,35.2,27.0,-99.9,-99.9,-99.9,0,0,100,0.00,40.00,7,2,7,0.00
2013-11-29,54.0,36.6,24.0,-99.9,-99.9,-99.9,0,0,100,0.00,40.00,12,3,12,0.00
2013-11-30,53.0,42.6,37.0,-99.9,-99.9,-99.9,0,0,100,0.00,40.00,15,3,18,0.00
2013-12-1,62.0,53.3,46.0,-99.9,-99.9,-99.9,0,0,100,0.00,40.00,30,9,32,0.00
2013-12-2,56.0,42.6,35.0,-99.9,-99.9,-99.9,0,0,100,0.00,40.00,17,9,23,0.00
2013-12-3,34.0,29.9,27.0,-99.9,-99.9,-99.9,0,0,100,0.00,40.00,19,11,19,0.00
2013-12-4,26.0,23.0,21.0,-99.9,-99.9,-99.9,0,0,100,0.00,40.00,16,9,17,0.00
2013-12-6,24.0,20.9,12.0,-99.9,-99.9,-99.9,0,0,100,0.00,40.00,3,2,7,0.00
2013-12-7,22.0,15.2,6.0,-99.9,-99.9,-99.9,0,0,100,0.00,40.00,18,11,23,0.00
2013-12-8,13.0,3.2,-3.0,-99.9,-99.9,-99.9,0,0,100,0.00,40.00,8,3,8,0.00
2013-12-9,25.0,19.0,3.0,-99.9,-99.9,-99.9,0,0,100,0.00,40.00,46,20,47,0.00
2013-12-10,30.0,25.7,23.0,-99.9,-99.9,-99.9,0,0,100,0.00,40.00,31,13,40,0.00
2013-12-11,33.0,30.4,24.0,-99.9,-99.9,-99.9,0,0,100,0.00,40.00,45,26,58,0.00
2013-12-12,36.0,33.2,29.0,-99.9,-99.9,-99.9,0,0,100,0.00,40.00,43,27,61,0.00
2013-12-13,40.0,37.1,32.0,-99.9,-99.9,-99.9,0,0,100,0.00,40.00,4,3,5,0.00
2013-12-16,45.0,38.7,34.0,-99.9,-99.9,-99.9,0,0,100,0.00,40.00,14,4,14,0.00
2013-12-17,45.0,42.5,36.0,-99.9,-99.9,-99.9,0,0,100,0.00,40.00,54,30,59,0.00
2013-12-18,45.0,40.1,36.0,-99.9,-99.9,-99.9,0,0,100,0.00,40.00,14,3,18,0.00
2013-12-19,38.0,30.4,22.0,-99.9,-99.9,-99.9,0,0,100,0.00,40.00,21,10,21,0.00
2013-12-20,30.0,26.6,21.0,-99.9,-99.9,-99.9,0,0,100,0.00,40.00,45,12,54,0.00
2013-12-21,42.0,36.1,31.0,-99.9,-99.9,-99.9,0,0,100,0.00,40.00,8,3,12,0.00
2013-12-22,46.0,42.4,39.0,-99.9,-99.9,-99.9,0,0,100,0.00,40.00,9,4,9,0.00
2013-12-23,47.0,43.4,39.0,-99.9,-99.9,-99.9,0,0,100,0.00,40.00,33,10,33,0.00
2013-12-24,44.0,37.4,32.0,-99.9,-99.9,-99.9,0,0,100,0.00,40.00,21,5,23,0.00
2013-12-25,33.0,29.1,27.0,-99.9,-99.9,-99.9,0,0,100,0.00,40.00,3,3,10,0.00
2013-12-26,44.0,41.7,36.0,-99.9,-99.9,-99.9,0,0,100,0.00,40.00,23,14,34,0.00
2013-12-27,44.0,41.6,37.0,-99.9,-99.9,-99.9,0,0,100,0.00,40.00,48,25,56,0.00
2013-12-28,49.0,38.5,30.0,-99.9,-99.9,-99.9,0,0,100,0.00,40.00,6,2,8,0.00
2013-12-29,39.0,33.5,25.0,-99.9,-99.9,-99.9,0,0,100,0.00,40.00,6,2,7,0.00
2013-12-30,42.0,34.9,32.0,-99.9,-99.9,-99.9,0,0,100,0.00,40.00,7,2,12,0.00
2013-12-31,44.0,40.4,38.0,-99.9,-99.9,-99.9,0,0,100,0.00,40.00,11,4,15,0.00
2014-1-1,43.0,38.3,34.0,-99.9,-99.9,-99.9,0,0,100,0.00,40.00,5,2,9,0.00
2014-1-2,43.0,40.8,36.0,-99.9,-99.9,-99.9,0,0,100,0.00,40.00,48,26,55,0.00